sensor_id;sensor_type;location;lat;lon;timestamp;P1;durP1;ratioP1;P2;durP2;ratioP2
11504;SDS011;5809;53.262;10.408;2023-08-30T00:02:01;3.63;;;2.45;;
11504;SDS011;5809;53.262;10.408;2023-08-30T00:04:28;2.50;;;2.30;;
11504;SDS011;5809;53.262;10.408;2023-08-30T00:06:55;4.40;;;2.40;;
11504;SDS011;5809;53.262;10.408;2023-08-30T00:09:22;2.90;;;2.60;;
11504;SDS011;5809;53.262;10.408;2023-08-30T00:11:50;3.95;;;2.60;;
11504;SDS011;5809;53.262;10.408;2023-08-30T00:14:17;5.00;;;2.58;;
11504;SDS011;5809;53.262;10.408;2023-08-30T00:16:44;3.28;;;2.22;;
11504;SDS011;5809;53.262;10.408;2023-08-30T00:19:13;3.55;;;2.38;;
11504;SDS011;5809;53.262;10.408;2023-08-30T00:21:40;2.83;;;2.40;;
11504;SDS011;5809;53.262;10.408;2023-08-30T00:24:08;3.72;;;2.70;;
11504;SDS011;5809;53.262;10.408;2023-08-30T00:26:35;2.72;;;2.53;;
11504;SDS011;5809;53.262;10.408;2023-08-30T00:29:02;4.55;;;2.50;;
11504;SDS011;5809;53.262;10.408;2023-08-30T00:31:28;2.70;;;2.50;;
11504;SDS011;5809;53.262;10.408;2023-08-30T00:33:55;6.22;;;2.60;;
11504;SDS011;5809;53.262;10.408;2023-08-30T00:36:23;2.80;;;2.55;;
11504;SDS011;5809;53.262;10.408;2023-08-30T00:38:50;2.95;;;2.50;;
11504;SDS011;5809;53.262;10.408;2023-08-30T00:41:16;2.97;;;2.67;;
11504;SDS011;5809;53.262;10.408;2023-08-30T00:43:43;2.90;;;2.33;;
11504;SDS011;5809;53.262;10.408;2023-08-30T00:46:10;4.47;;;2.38;;
11504;SDS011;5809;53.262;10.408;2023-08-30T00:48:37;3.00;;;2.67;;
11504;SDS011;5809;53.262;10.408;2023-08-30T00:51:04;3.72;;;2.67;;
11504;SDS011;5809;53.262;10.408;2023-08-30T00:53:33;3.03;;;2.72;;
11504;SDS011;5809;53.262;10.408;2023-08-30T00:56:00;4.68;;;2.90;;
11504;SDS011;5809;53.262;10.408;2023-08-30T00:58:27;3.42;;;3.13;;
11504;SDS011;5809;53.262;10.408;2023-08-30T01:00:54;3.20;;;2.90;;
11504;SDS011;5809;53.262;10.408;2023-08-30T01:03:21;3.20;;;2.90;;
11504;SDS011;5809;53.262;10.408;2023-08-30T01:05:48;3.10;;;2.90;;
11504;SDS011;5809;53.262;10.408;2023-08-30T01:08:16;3.28;;;2.90;;
11504;SDS011;5809;53.262;10.408;2023-08-30T01:10:47;7.13;;;3.47;;
11504;SDS011;5809;53.262;10.408;2023-08-30T01:13:20;3.85;;;3.33;;
11504;SDS011;5809;53.262;10.408;2023-08-30T01:15:47;5.30;;;3.20;;
11504;SDS011;5809;53.262;10.408;2023-08-30T01:18:17;4.95;;;3.10;;
11504;SDS011;5809;53.262;10.408;2023-08-30T01:20:46;3.70;;;3.13;;
11504;SDS011;5809;53.262;10.408;2023-08-30T01:23:17;4.05;;;3.40;;
11504;SDS011;5809;53.262;10.408;2023-08-30T01:25:55;4.80;;;3.10;;
11504;SDS011;5809;53.262;10.408;2023-08-30T01:32:14;4.07;;;3.33;;
11504;SDS011;5809;53.262;10.408;2023-08-30T01:34:47;6.45;;;3.40;;
11504;SDS011;5809;53.262;10.408;2023-08-30T01:37:28;4.68;;;3.30;;
11504;SDS011;5809;53.262;10.408;2023-08-30T01:40:03;4.18;;;3.42;;
11504;SDS011;5809;53.262;10.408;2023-08-30T01:42:32;4.97;;;3.47;;
11504;SDS011;5809;53.262;10.408;2023-08-30T01:45:14;3.60;;;3.30;;
11504;SDS011;5809;53.262;10.408;2023-08-30T02:01:51;5.15;;;4.07;;
11504;SDS011;5809;53.262;10.408;2023-08-30T02:08:34;3.95;;;3.63;;
11504;SDS011;5809;53.262;10.408;2023-08-30T02:11:32;4.15;;;3.67;;
11504;SDS011;5809;53.262;10.408;2023-08-30T02:14:05;4.38;;;3.40;;
11504;SDS011;5809;53.262;10.408;2023-08-30T02:16:45;4.95;;;4.00;;
11504;SDS011;5809;53.262;10.408;2023-08-30T02:19:12;6.18;;;4.13;;
11504;SDS011;5809;53.262;10.408;2023-08-30T02:22:08;6.75;;;4.28;;
11504;SDS011;5809;53.262;10.408;2023-08-30T02:25:18;7.55;;;4.65;;
11504;SDS011;5809;53.262;10.408;2023-08-30T02:28:32;5.55;;;4.65;;
11504;SDS011;5809;53.262;10.408;2023-08-30T02:31:51;6.47;;;4.28;;
11504;SDS011;5809;53.262;10.408;2023-08-30T02:35:04;5.28;;;4.57;;
11504;SDS011;5809;53.262;10.408;2023-08-30T02:44:22;8.60;;;4.90;;
11504;SDS011;5809;53.262;10.408;2023-08-30T02:50:14;5.50;;;4.95;;
11504;SDS011;5809;53.262;10.408;2023-08-30T02:52:41;7.65;;;4.80;;
11504;SDS011;5809;53.262;10.408;2023-08-30T02:55:08;5.53;;;5.03;;
11504;SDS011;5809;53.262;10.408;2023-08-30T02:57:35;5.40;;;4.90;;
11504;SDS011;5809;53.262;10.408;2023-08-30T03:00:04;7.07;;;5.13;;
11504;SDS011;5809;53.262;10.408;2023-08-30T03:02:31;8.25;;;5.30;;
11504;SDS011;5809;53.262;10.408;2023-08-30T03:04:59;5.72;;;5.00;;
11504;SDS011;5809;53.262;10.408;2023-08-30T03:07:28;5.78;;;4.93;;
11504;SDS011;5809;53.262;10.408;2023-08-30T03:09:55;5.97;;;4.50;;
11504;SDS011;5809;53.262;10.408;2023-08-30T03:12:21;6.15;;;4.80;;
11504;SDS011;5809;53.262;10.408;2023-08-30T03:14:48;5.53;;;4.75;;
11504;SDS011;5809;53.262;10.408;2023-08-30T03:17:17;5.18;;;4.05;;
11504;SDS011;5809;53.262;10.408;2023-08-30T03:19:43;5.97;;;4.05;;
11504;SDS011;5809;53.262;10.408;2023-08-30T03:22:10;4.55;;;4.15;;
11504;SDS011;5809;53.262;10.408;2023-08-30T03:24:37;6.65;;;4.30;;
11504;SDS011;5809;53.262;10.408;2023-08-30T03:27:04;4.50;;;3.83;;
11504;SDS011;5809;53.262;10.408;2023-08-30T03:37:06;5.90;;;5.05;;
11504;SDS011;5809;53.262;10.408;2023-08-30T03:39:33;5.90;;;5.22;;
11504;SDS011;5809;53.262;10.408;2023-08-30T03:42:00;5.85;;;4.95;;
11504;SDS011;5809;53.262;10.408;2023-08-30T03:44:27;9.43;;;5.20;;
11504;SDS011;5809;53.262;10.408;2023-08-30T03:46:54;6.03;;;5.53;;
11504;SDS011;5809;53.262;10.408;2023-08-30T03:49:22;6.15;;;5.55;;
11504;SDS011;5809;53.262;10.408;2023-08-30T03:51:49;6.30;;;5.75;;
11504;SDS011;5809;53.262;10.408;2023-08-30T03:54:17;5.55;;;5.05;;
11504;SDS011;5809;53.262;10.408;2023-08-30T03:56:44;6.07;;;4.95;;
11504;SDS011;5809;53.262;10.408;2023-08-30T03:59:11;6.00;;;4.97;;
11504;SDS011;5809;53.262;10.408;2023-08-30T04:01:38;7.35;;;5.05;;
11504;SDS011;5809;53.262;10.408;2023-08-30T04:04:05;5.97;;;5.38;;
11504;SDS011;5809;53.262;10.408;2023-08-30T04:06:32;5.68;;;5.13;;
11504;SDS011;5809;53.262;10.408;2023-08-30T04:08:58;5.38;;;4.88;;
11504;SDS011;5809;53.262;10.408;2023-08-30T04:11:27;6.15;;;5.15;;
11504;SDS011;5809;53.262;10.408;2023-08-30T04:13:53;5.60;;;5.10;;
11504;SDS011;5809;53.262;10.408;2023-08-30T04:16:21;5.78;;;5.28;;
11504;SDS011;5809;53.262;10.408;2023-08-30T04:18:47;6.72;;;5.65;;
11504;SDS011;5809;53.262;10.408;2023-08-30T04:21:15;6.25;;;5.65;;
11504;SDS011;5809;53.262;10.408;2023-08-30T04:23:41;6.72;;;6.03;;
11504;SDS011;5809;53.262;10.408;2023-08-30T04:26:09;6.17;;;5.57;;
11504;SDS011;5809;53.262;10.408;2023-08-30T04:28:37;7.78;;;6.07;;
11504;SDS011;5809;53.262;10.408;2023-08-30T04:31:04;7.68;;;6.43;;
11504;SDS011;5809;53.262;10.408;2023-08-30T04:33:32;7.20;;;6.50;;
11504;SDS011;5809;53.262;10.408;2023-08-30T04:35:59;8.37;;;5.83;;
11504;SDS011;5809;53.262;10.408;2023-08-30T04:38:29;10.02;;;6.32;;
11504;SDS011;5809;53.262;10.408;2023-08-30T04:40:56;7.25;;;6.10;;
11504;SDS011;5809;53.262;10.408;2023-08-30T04:43:24;7.90;;;6.97;;
11504;SDS011;5809;53.262;10.408;2023-08-30T04:45:53;7.13;;;6.43;;
11504;SDS011;5809;53.262;10.408;2023-08-30T04:48:20;6.43;;;5.82;;
11504;SDS011;5809;53.262;10.408;2023-08-30T04:50:49;7.17;;;6.33;;
11504;SDS011;5809;53.262;10.408;2023-08-30T04:53:16;7.32;;;6.63;;
11504;SDS011;5809;53.262;10.408;2023-08-30T04:55:43;8.10;;;6.53;;
11504;SDS011;5809;53.262;10.408;2023-08-30T04:58:10;9.23;;;6.90;;
11504;SDS011;5809;53.262;10.408;2023-08-30T05:00:37;9.07;;;6.35;;
11504;SDS011;5809;53.262;10.408;2023-08-30T05:03:06;8.73;;;6.55;;
11504;SDS011;5809;53.262;10.408;2023-08-30T05:05:33;7.50;;;5.22;;
11504;SDS011;5809;53.262;10.408;2023-08-30T05:08:00;6.55;;;5.95;;
11504;SDS011;5809;53.262;10.408;2023-08-30T05:10:27;6.30;;;5.57;;
11504;SDS011;5809;53.262;10.408;2023-08-30T05:12:54;6.65;;;5.80;;
11504;SDS011;5809;53.262;10.408;2023-08-30T05:15:21;6.47;;;5.53;;
11504;SDS011;5809;53.262;10.408;2023-08-30T05:17:48;6.00;;;5.40;;
11504;SDS011;5809;53.262;10.408;2023-08-30T05:20:16;6.03;;;5.43;;
11504;SDS011;5809;53.262;10.408;2023-08-30T05:22:43;5.72;;;5.22;;
11504;SDS011;5809;53.262;10.408;2023-08-30T05:25:10;5.97;;;5.07;;
11504;SDS011;5809;53.262;10.408;2023-08-30T05:27:37;7.28;;;5.00;;
11504;SDS011;5809;53.262;10.408;2023-08-30T05:30:05;7.13;;;5.32;;
11504;SDS011;5809;53.262;10.408;2023-08-30T05:32:32;5.75;;;5.25;;
11504;SDS011;5809;53.262;10.408;2023-08-30T05:34:59;6.22;;;5.28;;
11504;SDS011;5809;53.262;10.408;2023-08-30T05:37:28;6.63;;;5.60;;
11504;SDS011;5809;53.262;10.408;2023-08-30T05:39:54;7.25;;;5.70;;
11504;SDS011;5809;53.262;10.408;2023-08-30T05:42:23;5.68;;;5.07;;
11504;SDS011;5809;53.262;10.408;2023-08-30T05:44:49;5.88;;;5.20;;
11504;SDS011;5809;53.262;10.408;2023-08-30T05:47:17;5.35;;;4.85;;
11504;SDS011;5809;53.262;10.408;2023-08-30T05:49:44;5.18;;;4.68;;
11504;SDS011;5809;53.262;10.408;2023-08-30T05:52:11;5.35;;;4.82;;
11504;SDS011;5809;53.262;10.408;2023-08-30T05:54:39;6.65;;;5.68;;
11504;SDS011;5809;53.262;10.408;2023-08-30T05:57:07;5.75;;;5.20;;
11504;SDS011;5809;53.262;10.408;2023-08-30T05:59:35;6.88;;;5.60;;
11504;SDS011;5809;53.262;10.408;2023-08-30T06:02:02;8.32;;;5.93;;
11504;SDS011;5809;53.262;10.408;2023-08-30T06:04:29;7.78;;;6.97;;
11504;SDS011;5809;53.262;10.408;2023-08-30T06:06:56;8.02;;;6.90;;
11504;SDS011;5809;53.262;10.408;2023-08-30T06:09:23;8.07;;;7.28;;
11504;SDS011;5809;53.262;10.408;2023-08-30T06:11:52;8.50;;;7.05;;
11504;SDS011;5809;53.262;10.408;2023-08-30T06:14:18;8.02;;;6.95;;
11504;SDS011;5809;53.262;10.408;2023-08-30T06:16:46;9.65;;;6.80;;
11504;SDS011;5809;53.262;10.408;2023-08-30T06:19:14;8.82;;;6.68;;
11504;SDS011;5809;53.262;10.408;2023-08-30T06:21:41;7.25;;;6.40;;
11504;SDS011;5809;53.262;10.408;2023-08-30T06:24:08;6.32;;;5.72;;
11504;SDS011;5809;53.262;10.408;2023-08-30T06:26:34;6.28;;;5.68;;
11504;SDS011;5809;53.262;10.408;2023-08-30T06:29:03;6.20;;;5.60;;
11504;SDS011;5809;53.262;10.408;2023-08-30T06:31:30;5.72;;;5.22;;
11504;SDS011;5809;53.262;10.408;2023-08-30T06:33:57;5.35;;;4.80;;
11504;SDS011;5809;53.262;10.408;2023-08-30T06:36:24;6.97;;;4.70;;
11504;SDS011;5809;53.262;10.408;2023-08-30T06:38:51;7.28;;;5.55;;
11504;SDS011;5809;53.262;10.408;2023-08-30T06:41:18;5.07;;;4.38;;
11504;SDS011;5809;53.262;10.408;2023-08-30T06:43:45;5.00;;;4.50;;
11504;SDS011;5809;53.262;10.408;2023-08-30T06:46:13;5.95;;;4.28;;
11504;SDS011;5809;53.262;10.408;2023-08-30T06:48:40;4.32;;;3.92;;
11504;SDS011;5809;53.262;10.408;2023-08-30T06:51:07;4.45;;;3.72;;
11504;SDS011;5809;53.262;10.408;2023-08-30T06:53:35;9.90;;;4.10;;
11504;SDS011;5809;53.262;10.408;2023-08-30T06:56:02;5.15;;;3.70;;
11504;SDS011;5809;53.262;10.408;2023-08-30T06:58:29;6.30;;;3.90;;
11504;SDS011;5809;53.262;10.408;2023-08-30T07:00:56;4.88;;;3.50;;
11504;SDS011;5809;53.262;10.408;2023-08-30T07:03:25;5.72;;;3.95;;
11504;SDS011;5809;53.262;10.408;2023-08-30T07:05:52;5.50;;;3.67;;
11504;SDS011;5809;53.262;10.408;2023-08-30T07:08:19;6.80;;;4.03;;
11504;SDS011;5809;53.262;10.408;2023-08-30T07:10:46;5.35;;;3.80;;
11504;SDS011;5809;53.262;10.408;2023-08-30T07:13:13;4.20;;;3.58;;
11504;SDS011;5809;53.262;10.408;2023-08-30T07:15:40;3.63;;;3.33;;
11504;SDS011;5809;53.262;10.408;2023-08-30T07:18:08;4.50;;;3.60;;
11504;SDS011;5809;53.262;10.408;2023-08-30T07:20:38;3.67;;;3.28;;
11504;SDS011;5809;53.262;10.408;2023-08-30T07:23:05;3.97;;;3.35;;
11504;SDS011;5809;53.262;10.408;2023-08-30T07:25:32;4.97;;;3.92;;
11504;SDS011;5809;53.262;10.408;2023-08-30T07:28:01;4.25;;;3.47;;
11504;SDS011;5809;53.262;10.408;2023-08-30T07:30:28;4.05;;;3.10;;
11504;SDS011;5809;53.262;10.408;2023-08-30T07:32:55;5.07;;;3.60;;
11504;SDS011;5809;53.262;10.408;2023-08-30T07:35:22;3.92;;;3.30;;
11504;SDS011;5809;53.262;10.408;2023-08-30T07:37:51;3.50;;;3.20;;
11504;SDS011;5809;53.262;10.408;2023-08-30T07:40:18;4.05;;;3.33;;
11504;SDS011;5809;53.262;10.408;2023-08-30T07:42:46;4.18;;;2.95;;
11504;SDS011;5809;53.262;10.408;2023-08-30T07:45:13;3.53;;;2.65;;
11504;SDS011;5809;53.262;10.408;2023-08-30T07:47:40;5.53;;;3.40;;
11504;SDS011;5809;53.262;10.408;2023-08-30T07:50:07;3.50;;;2.80;;
11504;SDS011;5809;53.262;10.408;2023-08-30T07:52:34;4.05;;;3.20;;
11504;SDS011;5809;53.262;10.408;2023-08-30T07:55:03;3.45;;;3.15;;
11504;SDS011;5809;53.262;10.408;2023-08-30T07:57:30;3.55;;;3.25;;
11504;SDS011;5809;53.262;10.408;2023-08-30T07:59:57;5.00;;;2.92;;
11504;SDS011;5809;53.262;10.408;2023-08-30T08:02:24;3.53;;;3.10;;
11504;SDS011;5809;53.262;10.408;2023-08-30T08:04:51;5.03;;;3.40;;
11504;SDS011;5809;53.262;10.408;2023-08-30T08:07:18;6.85;;;3.60;;
11504;SDS011;5809;53.262;10.408;2023-08-30T08:09:45;3.80;;;3.50;;
11504;SDS011;5809;53.262;10.408;2023-08-30T08:12:13;7.63;;;3.70;;
11504;SDS011;5809;53.262;10.408;2023-08-30T08:14:40;4.80;;;3.78;;
11504;SDS011;5809;53.262;10.408;2023-08-30T08:17:07;4.20;;;3.80;;
11504;SDS011;5809;53.262;10.408;2023-08-30T08:19:34;6.05;;;3.90;;
11504;SDS011;5809;53.262;10.408;2023-08-30T08:22:04;5.20;;;3.60;;
11504;SDS011;5809;53.262;10.408;2023-08-30T08:24:31;6.07;;;4.40;;
11504;SDS011;5809;53.262;10.408;2023-08-30T08:26:58;5.80;;;4.15;;
11504;SDS011;5809;53.262;10.408;2023-08-30T08:29:27;4.80;;;4.30;;
11504;SDS011;5809;53.262;10.408;2023-08-30T08:31:54;3.67;;;3.38;;
11504;SDS011;5809;53.262;10.408;2023-08-30T08:34:21;7.38;;;4.40;;
11504;SDS011;5809;53.262;10.408;2023-08-30T08:36:49;5.95;;;4.70;;
11504;SDS011;5809;53.262;10.408;2023-08-30T08:39:16;6.07;;;4.75;;
11504;SDS011;5809;53.262;10.408;2023-08-30T08:41:43;7.78;;;3.80;;
11504;SDS011;5809;53.262;10.408;2023-08-30T08:44:12;5.85;;;4.65;;
11504;SDS011;5809;53.262;10.408;2023-08-30T08:46:41;4.97;;;4.57;;
11504;SDS011;5809;53.262;10.408;2023-08-30T08:49:09;4.68;;;4.28;;
11504;SDS011;5809;53.262;10.408;2023-08-30T08:51:38;4.88;;;4.43;;
11504;SDS011;5809;53.262;10.408;2023-08-30T08:54:07;5.47;;;4.68;;
11504;SDS011;5809;53.262;10.408;2023-08-30T08:56:35;7.90;;;5.00;;
11504;SDS011;5809;53.262;10.408;2023-08-30T08:59:02;6.25;;;4.93;;
11504;SDS011;5809;53.262;10.408;2023-08-30T09:01:30;7.05;;;4.35;;
11504;SDS011;5809;53.262;10.408;2023-08-30T09:04:02;6.10;;;4.85;;
11504;SDS011;5809;53.262;10.408;2023-08-30T09:06:31;5.13;;;4.60;;
11504;SDS011;5809;53.262;10.408;2023-08-30T09:08:58;5.82;;;4.90;;
11504;SDS011;5809;53.262;10.408;2023-08-30T09:11:24;6.00;;;5.40;;
11504;SDS011;5809;53.262;10.408;2023-08-30T09:13:51;5.53;;;5.03;;
11504;SDS011;5809;53.262;10.408;2023-08-30T09:16:18;5.07;;;4.50;;
11504;SDS011;5809;53.262;10.408;2023-08-30T09:18:56;5.40;;;4.90;;
11504;SDS011;5809;53.262;10.408;2023-08-30T09:21:24;6.38;;;4.93;;
11504;SDS011;5809;53.262;10.408;2023-08-30T09:23:58;5.35;;;4.85;;
11504;SDS011;5809;53.262;10.408;2023-08-30T09:26:26;5.30;;;4.68;;
11504;SDS011;5809;53.262;10.408;2023-08-30T09:28:54;5.13;;;4.63;;
11504;SDS011;5809;53.262;10.408;2023-08-30T09:31:21;6.22;;;5.15;;
11504;SDS011;5809;53.262;10.408;2023-08-30T09:33:48;6.15;;;4.88;;
11504;SDS011;5809;53.262;10.408;2023-08-30T09:36:15;6.32;;;4.90;;
11504;SDS011;5809;53.262;10.408;2023-08-30T09:38:49;5.68;;;5.18;;
11504;SDS011;5809;53.262;10.408;2023-08-30T09:41:16;5.93;;;5.20;;
11504;SDS011;5809;53.262;10.408;2023-08-30T09:43:44;5.75;;;5.10;;
11504;SDS011;5809;53.262;10.408;2023-08-30T09:46:12;6.45;;;5.55;;
11504;SDS011;5809;53.262;10.408;2023-08-30T09:48:39;8.05;;;5.28;;
11504;SDS011;5809;53.262;10.408;2023-08-30T09:51:07;5.20;;;4.70;;
11504;SDS011;5809;53.262;10.408;2023-08-30T09:53:37;5.45;;;4.82;;
11504;SDS011;5809;53.262;10.408;2023-08-30T09:56:11;6.20;;;4.03;;
11504;SDS011;5809;53.262;10.408;2023-08-30T09:58:40;5.20;;;4.18;;
11504;SDS011;5809;53.262;10.408;2023-08-30T10:01:08;4.47;;;4.07;;
11504;SDS011;5809;53.262;10.408;2023-08-30T10:03:35;7.13;;;4.85;;
11504;SDS011;5809;53.262;10.408;2023-08-30T10:06:02;5.13;;;4.65;;
11504;SDS011;5809;53.262;10.408;2023-08-30T10:08:30;6.15;;;5.43;;
11504;SDS011;5809;53.262;10.408;2023-08-30T10:10:58;5.05;;;4.53;;
11504;SDS011;5809;53.262;10.408;2023-08-30T10:13:26;5.40;;;4.90;;
11504;SDS011;5809;53.262;10.408;2023-08-30T10:15:57;6.57;;;4.88;;
11504;SDS011;5809;53.262;10.408;2023-08-30T10:18:29;6.55;;;5.30;;
11504;SDS011;5809;53.262;10.408;2023-08-30T10:20:59;6.80;;;5.28;;
11504;SDS011;5809;53.262;10.408;2023-08-30T10:23:32;6.45;;;5.00;;
11504;SDS011;5809;53.262;10.408;2023-08-30T10:26:01;7.30;;;5.05;;
11504;SDS011;5809;53.262;10.408;2023-08-30T10:28:32;6.47;;;5.18;;
11504;SDS011;5809;53.262;10.408;2023-08-30T10:31:01;6.07;;;5.40;;
11504;SDS011;5809;53.262;10.408;2023-08-30T10:33:28;7.65;;;5.75;;
11504;SDS011;5809;53.262;10.408;2023-08-30T10:36:02;6.15;;;4.68;;
11504;SDS011;5809;53.262;10.408;2023-08-30T10:38:32;6.50;;;5.30;;
11504;SDS011;5809;53.262;10.408;2023-08-30T10:41:06;5.85;;;4.63;;
11504;SDS011;5809;53.262;10.408;2023-08-30T10:43:35;5.85;;;5.25;;
11504;SDS011;5809;53.262;10.408;2023-08-30T10:46:03;6.30;;;4.30;;
11504;SDS011;5809;53.262;10.408;2023-08-30T10:48:38;8.32;;;5.68;;
11504;SDS011;5809;53.262;10.408;2023-08-30T10:51:06;6.65;;;5.07;;
11504;SDS011;5809;53.262;10.408;2023-08-30T10:53:56;8.77;;;4.93;;
11504;SDS011;5809;53.262;10.408;2023-08-30T10:56:27;7.50;;;5.13;;
11504;SDS011;5809;53.262;10.408;2023-08-30T10:58:56;6.47;;;5.88;;
11504;SDS011;5809;53.262;10.408;2023-08-30T11:01:23;9.90;;;6.65;;
11504;SDS011;5809;53.262;10.408;2023-08-30T11:03:50;6.53;;;5.90;;
11504;SDS011;5809;53.262;10.408;2023-08-30T11:06:17;8.73;;;7.45;;
11504;SDS011;5809;53.262;10.408;2023-08-30T11:08:47;7.97;;;6.15;;
11504;SDS011;5809;53.262;10.408;2023-08-30T11:11:14;7.53;;;6.00;;
11504;SDS011;5809;53.262;10.408;2023-08-30T11:13:41;7.22;;;5.97;;
11504;SDS011;5809;53.262;10.408;2023-08-30T11:16:09;6.30;;;5.68;;
11504;SDS011;5809;53.262;10.408;2023-08-30T11:18:37;10.77;;;6.05;;
11504;SDS011;5809;53.262;10.408;2023-08-30T11:21:06;6.78;;;5.60;;
11504;SDS011;5809;53.262;10.408;2023-08-30T11:23:34;6.60;;;5.88;;
11504;SDS011;5809;53.262;10.408;2023-08-30T11:26:01;6.18;;;5.53;;
11504;SDS011;5809;53.262;10.408;2023-08-30T11:28:29;7.75;;;5.65;;
11504;SDS011;5809;53.262;10.408;2023-08-30T11:30:56;4.72;;;4.18;;
11504;SDS011;5809;53.262;10.408;2023-08-30T11:33:24;6.82;;;4.80;;
11504;SDS011;5809;53.262;10.408;2023-08-30T11:35:51;5.95;;;4.60;;
11504;SDS011;5809;53.262;10.408;2023-08-30T11:38:19;7.13;;;4.25;;
11504;SDS011;5809;53.262;10.408;2023-08-30T11:40:48;5.60;;;4.20;;
11504;SDS011;5809;53.262;10.408;2023-08-30T11:43:16;5.72;;;3.80;;
11504;SDS011;5809;53.262;10.408;2023-08-30T11:45:43;3.92;;;3.63;;
11504;SDS011;5809;53.262;10.408;2023-08-30T11:48:10;5.18;;;3.70;;
11504;SDS011;5809;53.262;10.408;2023-08-30T11:50:39;4.28;;;3.85;;
11504;SDS011;5809;53.262;10.408;2023-08-30T11:53:08;7.60;;;4.05;;
11504;SDS011;5809;53.262;10.408;2023-08-30T11:55:36;5.70;;;3.97;;
11504;SDS011;5809;53.262;10.408;2023-08-30T11:58:04;6.35;;;3.80;;
11504;SDS011;5809;53.262;10.408;2023-08-30T12:00:32;3.63;;;3.08;;
11504;SDS011;5809;53.262;10.408;2023-08-30T12:03:00;4.75;;;3.95;;
11504;SDS011;5809;53.262;10.408;2023-08-30T12:05:27;5.32;;;3.90;;
11504;SDS011;5809;53.262;10.408;2023-08-30T12:08:00;6.97;;;3.83;;
11504;SDS011;5809;53.262;10.408;2023-08-30T12:10:28;6.97;;;4.10;;
11504;SDS011;5809;53.262;10.408;2023-08-30T12:12:55;5.10;;;3.80;;
11504;SDS011;5809;53.262;10.408;2023-08-30T12:15:22;3.92;;;3.42;;
11504;SDS011;5809;53.262;10.408;2023-08-30T12:17:50;5.63;;;3.97;;
11504;SDS011;5809;53.262;10.408;2023-08-30T12:20:17;4.93;;;3.58;;
11504;SDS011;5809;53.262;10.408;2023-08-30T12:22:48;4.05;;;3.65;;
11504;SDS011;5809;53.262;10.408;2023-08-30T12:25:17;8.18;;;3.42;;
11504;SDS011;5809;53.262;10.408;2023-08-30T12:27:45;5.25;;;3.33;;
11504;SDS011;5809;53.262;10.408;2023-08-30T12:30:13;4.20;;;3.60;;
11504;SDS011;5809;53.262;10.408;2023-08-30T12:32:41;3.58;;;3.28;;
11504;SDS011;5809;53.262;10.408;2023-08-30T12:35:08;3.67;;;3.30;;
11504;SDS011;5809;53.262;10.408;2023-08-30T12:37:35;6.10;;;3.55;;
11504;SDS011;5809;53.262;10.408;2023-08-30T12:40:02;4.75;;;3.70;;
11504;SDS011;5809;53.262;10.408;2023-08-30T12:42:32;4.43;;;3.42;;
11504;SDS011;5809;53.262;10.408;2023-08-30T12:44:59;7.05;;;3.45;;
11504;SDS011;5809;53.262;10.408;2023-08-30T12:47:28;5.05;;;3.00;;
11504;SDS011;5809;53.262;10.408;2023-08-30T12:49:55;6.40;;;3.83;;
11504;SDS011;5809;53.262;10.408;2023-08-30T12:52:22;6.20;;;3.75;;
11504;SDS011;5809;53.262;10.408;2023-08-30T12:54:49;5.18;;;3.25;;
11504;SDS011;5809;53.262;10.408;2023-08-30T12:57:17;7.68;;;3.90;;
11504;SDS011;5809;53.262;10.408;2023-08-30T12:59:45;5.35;;;3.35;;
11504;SDS011;5809;53.262;10.408;2023-08-30T13:02:12;4.95;;;3.60;;
11504;SDS011;5809;53.262;10.408;2023-08-30T13:04:39;5.93;;;3.50;;
11504;SDS011;5809;53.262;10.408;2023-08-30T13:07:06;5.28;;;3.90;;
11504;SDS011;5809;53.262;10.408;2023-08-30T13:09:33;7.75;;;4.15;;
11504;SDS011;5809;53.262;10.408;2023-08-30T13:12:00;4.85;;;4.07;;
11504;SDS011;5809;53.262;10.408;2023-08-30T13:14:27;5.28;;;3.80;;
11504;SDS011;5809;53.262;10.408;2023-08-30T13:16:56;6.30;;;3.28;;
11504;SDS011;5809;53.262;10.408;2023-08-30T13:19:22;5.05;;;3.42;;
11504;SDS011;5809;53.262;10.408;2023-08-30T13:21:49;6.82;;;3.60;;
11504;SDS011;5809;53.262;10.408;2023-08-30T13:24:16;5.65;;;3.30;;
11504;SDS011;5809;53.262;10.408;2023-08-30T13:26:43;8.05;;;3.75;;
11504;SDS011;5809;53.262;10.408;2023-08-30T13:29:10;5.53;;;3.95;;
11504;SDS011;5809;53.262;10.408;2023-08-30T13:31:37;4.68;;;4.13;;
11504;SDS011;5809;53.262;10.408;2023-08-30T13:34:05;8.35;;;4.60;;
11504;SDS011;5809;53.262;10.408;2023-08-30T13:36:32;6.68;;;4.97;;
11504;SDS011;5809;53.262;10.408;2023-08-30T13:38:59;7.53;;;4.82;;
11504;SDS011;5809;53.262;10.408;2023-08-30T13:41:25;6.05;;;5.43;;
11504;SDS011;5809;53.262;10.408;2023-08-30T13:43:52;6.65;;;4.60;;
11504;SDS011;5809;53.262;10.408;2023-08-30T13:46:19;7.22;;;4.97;;
11504;SDS011;5809;53.262;10.408;2023-08-30T13:48:46;5.95;;;4.53;;
11504;SDS011;5809;53.262;10.408;2023-08-30T13:51:15;5.38;;;4.80;;
11504;SDS011;5809;53.262;10.408;2023-08-30T13:53:47;7.30;;;4.40;;
11504;SDS011;5809;53.262;10.408;2023-08-30T13:56:14;4.50;;;4.10;;
11504;SDS011;5809;53.262;10.408;2023-08-30T13:58:41;5.10;;;4.35;;
11504;SDS011;5809;53.262;10.408;2023-08-30T14:01:08;5.90;;;4.15;;
11504;SDS011;5809;53.262;10.408;2023-08-30T14:03:35;4.82;;;3.97;;
11504;SDS011;5809;53.262;10.408;2023-08-30T14:06:03;6.65;;;4.38;;
11504;SDS011;5809;53.262;10.408;2023-08-30T14:08:31;6.47;;;4.00;;
11504;SDS011;5809;53.262;10.408;2023-08-30T14:10:59;5.45;;;3.95;;
11504;SDS011;5809;53.262;10.408;2023-08-30T14:13:25;4.40;;;4.00;;
11504;SDS011;5809;53.262;10.408;2023-08-30T14:15:57;7.18;;;4.07;;
11504;SDS011;5809;53.262;10.408;2023-08-30T14:18:24;5.50;;;3.80;;
11504;SDS011;5809;53.262;10.408;2023-08-30T14:20:54;4.43;;;3.97;;
11504;SDS011;5809;53.262;10.408;2023-08-30T14:23:21;6.32;;;4.30;;
11504;SDS011;5809;53.262;10.408;2023-08-30T14:25:56;5.35;;;4.78;;
11504;SDS011;5809;53.262;10.408;2023-08-30T14:28:23;5.07;;;4.57;;
11504;SDS011;5809;53.262;10.408;2023-08-30T14:30:50;5.47;;;4.25;;
11504;SDS011;5809;53.262;10.408;2023-08-30T14:33:17;4.53;;;3.70;;
11504;SDS011;5809;53.262;10.408;2023-08-30T14:35:44;3.95;;;3.42;;
11504;SDS011;5809;53.262;10.408;2023-08-30T14:38:11;4.65;;;3.38;;
11504;SDS011;5809;53.262;10.408;2023-08-30T14:40:38;4.70;;;3.20;;
11504;SDS011;5809;53.262;10.408;2023-08-30T14:43:06;4.30;;;2.90;;
11504;SDS011;5809;53.262;10.408;2023-08-30T14:45:33;5.45;;;3.08;;
11504;SDS011;5809;53.262;10.408;2023-08-30T14:48:00;4.90;;;3.38;;
11504;SDS011;5809;53.262;10.408;2023-08-30T14:50:27;3.83;;;2.92;;
11504;SDS011;5809;53.262;10.408;2023-08-30T14:52:54;3.28;;;2.90;;
11504;SDS011;5809;53.262;10.408;2023-08-30T14:55:21;3.22;;;2.78;;
11504;SDS011;5809;53.262;10.408;2023-08-30T14:57:49;4.60;;;3.78;;
11504;SDS011;5809;53.262;10.408;2023-08-30T15:00:17;3.65;;;3.03;;
11504;SDS011;5809;53.262;10.408;2023-08-30T15:02:44;5.50;;;3.20;;
11504;SDS011;5809;53.262;10.408;2023-08-30T15:05:11;4.30;;;3.40;;
11504;SDS011;5809;53.262;10.408;2023-08-30T15:07:38;3.63;;;2.95;;
11504;SDS011;5809;53.262;10.408;2023-08-30T15:10:05;3.88;;;3.28;;
11504;SDS011;5809;53.262;10.408;2023-08-30T15:12:32;6.53;;;3.15;;
11504;SDS011;5809;53.262;10.408;2023-08-30T15:14:59;4.25;;;3.38;;
11504;SDS011;5809;53.262;10.408;2023-08-30T15:17:27;6.03;;;3.53;;
11504;SDS011;5809;53.262;10.408;2023-08-30T15:19:54;4.20;;;3.80;;
11504;SDS011;5809;53.262;10.408;2023-08-30T15:22:21;4.80;;;3.60;;
11504;SDS011;5809;53.262;10.408;2023-08-30T15:24:48;4.50;;;3.47;;
11504;SDS011;5809;53.262;10.408;2023-08-30T15:27:15;4.35;;;3.30;;
11504;SDS011;5809;53.262;10.408;2023-08-30T15:29:42;3.88;;;3.53;;
11504;SDS011;5809;53.262;10.408;2023-08-30T15:32:09;5.10;;;3.28;;
11504;SDS011;5809;53.262;10.408;2023-08-30T15:34:37;4.82;;;3.35;;
11504;SDS011;5809;53.262;10.408;2023-08-30T15:37:04;5.22;;;3.60;;